createdAt,value
2022-10-28T00:00:08.579Z,70.20
2022-10-28T05:01:37.532Z,70.47
2022-10-28T05:04:06.826Z,70.44
2022-10-28T05:06:35.980Z,70.48
2022-10-28T05:09:04.845Z,70.36
2022-10-28T05:11:33.850Z,70.48
2022-10-28T05:14:03.107Z,70.32
2022-10-28T05:16:31.956Z,70.18
2022-10-28T05:19:01.083Z,70.35
2022-10-28T05:21:30.140Z,70.46
2022-10-28T05:23:59.346Z,70.48
2022-10-28T05:26:28.359Z,70.62
2022-10-28T05:28:57.647Z,70.51
2022-10-28T05:31:26.931Z,70.46
2022-10-28T05:33:55.708Z,70.74
2022-10-28T05:36:24.934Z,70.81
2022-10-28T05:38:53.906Z,70.70
2022-10-28T05:41:23.423Z,70.63
2022-10-28T05:43:52.724Z,70.50
2022-10-28T05:46:22.773Z,70.81
2022-10-28T05:48:51.458Z,70.82
2022-10-28T05:51:20.273Z,70.62
2022-10-28T05:53:51.632Z,70.64
2022-10-28T05:56:21.647Z,70.76
2022-10-28T05:58:53.011Z,70.65
2022-10-28T06:01:22.221Z,70.83
2022-10-28T06:03:51.339Z,70.82
2022-10-28T06:06:20.278Z,70.88
2022-10-28T06:08:49.071Z,70.72
2022-10-28T06:11:17.089Z,70.79
2022-10-28T06:13:45.852Z,70.71
2022-10-28T06:16:15.199Z,70.73
2022-10-28T06:18:44.181Z,70.79
2022-10-28T06:21:13.648Z,70.87
2022-10-28T06:23:42.521Z,71.11
2022-10-28T06:26:11.564Z,70.67
2022-10-28T06:28:40.612Z,70.92
2022-10-28T06:31:09.456Z,70.99
2022-10-28T06:33:37.938Z,70.93
2022-10-28T06:36:07.139Z,71.10
2022-10-28T06:38:35.946Z,71.03
2022-10-28T06:41:04.615Z,71.06
2022-10-28T06:43:33.074Z,70.99
2022-10-28T06:49:21.757Z,71.15
2022-10-28T06:51:50.313Z,71.04
2022-10-28T06:54:18.614Z,71.02
2022-10-28T06:56:47.742Z,70.94
2022-10-28T06:59:17.847Z,70.71
2022-10-28T07:01:46.270Z,70.94
2022-10-28T07:04:15.005Z,70.97
2022-10-28T07:06:45.457Z,70.97
2022-10-28T07:09:16.689Z,70.94
2022-10-28T07:11:52.314Z,70.75
2022-10-28T07:14:23.523Z,70.89
2022-10-28T07:16:52.483Z,70.68
2022-10-28T07:19:22.733Z,70.83
2022-10-28T07:21:51.912Z,70.90
2022-10-28T07:24:20.255Z,70.74
2022-10-28T07:26:51.989Z,70.93
2022-10-28T07:29:23.491Z,70.87
2022-10-28T07:31:54.696Z,70.77
2022-10-28T07:34:26.911Z,70.95
2022-10-28T07:36:57.107Z,70.84
2022-10-28T07:39:25.680Z,70.96
2022-10-28T07:41:54.315Z,70.64
2022-10-28T07:44:22.774Z,70.91
2022-10-28T07:46:54.279Z,70.77
2022-10-28T07:49:25.813Z,70.52
2022-10-28T07:51:54.421Z,70.60
2022-10-28T07:54:23.289Z,70.60
2022-10-28T07:56:51.837Z,70.60
2022-10-28T07:59:25.853Z,70.70
2022-10-28T08:01:55.694Z,70.68
2022-10-28T08:04:24.591Z,70.79
2022-10-28T08:09:26.860Z,70.38
2022-10-28T08:11:58.692Z,70.67
2022-10-28T08:14:27.514Z,70.59
2022-10-28T08:16:56.444Z,70.55
2022-10-28T08:19:25.611Z,70.59
2022-10-28T08:21:54.662Z,70.53
2022-10-28T08:24:24.425Z,70.59
2022-10-28T08:26:53.441Z,70.71
2022-10-28T08:29:25.121Z,70.43
2022-10-28T08:31:58.117Z,70.51
2022-10-28T08:34:30.041Z,70.42
2022-10-28T08:36:59.113Z,70.39
2022-10-28T08:39:28.330Z,70.41
2022-10-28T08:42:04.240Z,70.43
2022-10-28T08:44:32.612Z,70.50
2022-10-28T08:47:07.133Z,70.43
2022-10-28T08:49:38.095Z,70.61
2022-10-28T08:52:11.932Z,70.73
2022-10-28T08:54:47.969Z,70.44
2022-10-28T08:57:37.204Z,70.53
2022-10-28T09:00:07.311Z,70.58
2022-10-28T09:02:59.303Z,70.43
2022-10-28T09:05:29.104Z,70.31
2022-10-28T09:07:57.977Z,70.41
2022-10-28T09:11:03.231Z,70.36
2022-10-28T09:14:12.138Z,70.38
2022-10-28T09:17:10.965Z,70.59
2022-10-28T09:19:43.801Z,70.42
2022-10-28T09:22:30.890Z,70.44
2022-10-28T09:25:02.496Z,70.27
2022-10-28T09:28:00.527Z,70.29
2022-10-28T09:30:38.321Z,70.24
2022-10-28T09:33:27.007Z,70.23
2022-10-28T09:35:57.224Z,70.36
2022-10-28T09:38:26.378Z,70.19
2022-10-28T09:41:15.506Z,70.15
2022-10-28T09:43:47.991Z,70.13
2022-10-28T09:46:18.558Z,70.06
2022-10-28T09:48:51.828Z,70.08
2022-10-28T09:51:29.907Z,69.95
2022-10-28T09:54:16.658Z,69.91
2022-10-28T09:56:45.582Z,69.96
2022-10-28T09:59:15.267Z,69.90
2022-10-28T10:01:46.992Z,69.98
2022-10-28T10:04:20.399Z,70.14
2022-10-28T10:07:10.167Z,70.19
2022-10-28T10:09:39.972Z,70.19
2022-10-28T10:12:10.195Z,70.25
2022-10-28T10:14:44.371Z,70.31
2022-10-28T10:17:33.211Z,70.35
2022-10-28T10:20:05.447Z,70.38
2022-10-28T10:22:40.728Z,70.32
2022-10-28T10:25:19.164Z,70.35
2022-10-28T10:27:56.247Z,70.19
2022-10-28T10:30:40.146Z,70.23
2022-10-28T10:33:18.109Z,70.33
2022-10-28T10:35:56.580Z,70.34
2022-10-28T10:38:51.595Z,70.37
2022-10-28T10:41:39.925Z,70.35
2022-10-28T10:44:23.818Z,70.39
2022-10-28T10:47:13.867Z,70.27
2022-10-28T10:49:42.917Z,70.25
2022-10-28T10:52:19.537Z,70.24
2022-10-28T10:55:09.118Z,70.23
2022-10-28T10:57:37.956Z,70.09
2022-10-28T11:00:28.418Z,70.36
2022-10-28T11:02:58.545Z,70.36
2022-10-28T11:05:31.949Z,70.36
2022-10-28T11:08:08.164Z,70.49
2022-10-28T11:11:04.474Z,70.38
2022-10-28T11:13:34.181Z,70.35
2022-10-28T11:16:03.827Z,70.36
2022-10-28T11:18:46.020Z,70.34
2022-10-28T11:21:35.747Z,70.22
2022-10-28T11:24:09.964Z,70.23
2022-10-28T11:26:43.932Z,70.18
2022-10-28T11:29:30.457Z,70.26
2022-10-28T11:32:19.474Z,70.15
2022-10-28T11:35:34.947Z,70.10
2022-10-28T11:38:06.139Z,70.05
2022-10-28T11:40:44.199Z,70.13
2022-10-28T11:43:18.526Z,69.96
2022-10-28T11:45:50.316Z,69.86
2022-10-28T11:48:33.207Z,69.84
2022-10-28T11:51:10.787Z,69.84
2022-10-28T11:53:42.957Z,69.79
2022-10-28T11:56:12.056Z,69.78
2022-10-28T11:58:47.573Z,69.71
2022-10-28T12:01:19.455Z,69.65
2022-10-28T12:03:48.269Z,69.71
2022-10-28T12:06:22.883Z,69.56
2022-10-28T12:08:58.270Z,69.33
2022-10-28T12:11:35.683Z,69.57
2022-10-28T12:14:10.423Z,69.58
2022-10-28T12:16:39.537Z,69.52
2022-10-28T12:19:27.562Z,69.56
2022-10-28T12:22:20.399Z,69.58
2022-10-28T12:24:50.056Z,69.52
2022-10-28T12:27:19.241Z,69.36
2022-10-28T12:30:29.354Z,69.25
2022-10-28T12:33:01.418Z,69.56
2022-10-28T12:35:38.452Z,69.54
2022-10-28T12:38:34.287Z,69.46
2022-10-28T12:41:27.115Z,69.59
2022-10-28T12:43:56.661Z,69.67
2022-10-28T12:46:26.779Z,69.81
2022-10-28T12:48:58.988Z,69.82
2022-10-28T12:51:31.645Z,69.98
2022-10-28T12:54:24.629Z,69.95
2022-10-28T12:57:15.098Z,69.99
2022-10-28T13:00:07.543Z,69.83
2022-10-28T13:02:41.668Z,69.96
2022-10-28T13:05:20.073Z,70.04
2022-10-28T13:08:28.277Z,70.10
2022-10-28T13:11:09.027Z,70.19
2022-10-28T13:13:46.947Z,70.21
2022-10-28T13:16:24.530Z,70.36
2022-10-28T13:18:55.625Z,70.42
2022-10-28T13:21:33.140Z,70.29
2022-10-28T13:24:21.081Z,70.42
2022-10-28T13:26:49.982Z,70.40
2022-10-28T13:29:27.657Z,70.29
2022-10-28T13:31:56.711Z,70.17
2022-10-28T13:34:32.644Z,70.23
2022-10-28T13:37:03.669Z,70.29
2022-10-28T13:39:32.869Z,70.09
2022-10-28T13:42:14.469Z,70.12
2022-10-28T13:44:49.991Z,70.08
2022-10-28T13:47:18.653Z,69.96
2022-10-28T13:50:11.150Z,69.96
2022-10-28T13:53:16.099Z,69.88
2022-10-28T13:56:12.713Z,69.90
2022-10-28T13:58:50.586Z,69.92
2022-10-28T14:01:38.982Z,69.94
2022-10-28T14:04:22.028Z,69.97
2022-10-28T14:06:50.868Z,69.95
2022-10-28T14:09:22.681Z,69.80
2022-10-28T14:12:10.626Z,69.90
2022-10-28T14:15:00.199Z,70.03
2022-10-28T14:17:40.182Z,69.94
2022-10-28T14:20:30.049Z,69.87
2022-10-28T14:23:21.818Z,69.92
2022-10-28T14:25:50.593Z,69.78
2022-10-28T14:28:31.076Z,69.81
2022-10-28T14:31:25.393Z,69.85
2022-10-28T14:33:53.702Z,69.95
2022-10-28T14:36:42.412Z,69.98
2022-10-28T14:39:26.461Z,70.04
2022-10-28T14:41:58.396Z,70.09
2022-10-28T14:44:27.387Z,70.12
2022-10-28T14:47:08.177Z,70.03
2022-10-28T14:50:06.368Z,70.01
2022-10-28T14:52:37.653Z,70.02
2022-10-28T14:55:08.080Z,70.01
2022-10-28T14:57:36.507Z,69.99
2022-10-28T15:00:07.645Z,70.06
2022-10-28T15:02:38.734Z,70.09
2022-10-28T15:05:18.949Z,70.03
2022-10-28T15:07:48.042Z,70.09
2022-10-28T15:10:16.448Z,70.15
2022-10-28T15:12:46.356Z,70.06
2022-10-28T15:15:21.814Z,70.03
2022-10-28T15:17:51.649Z,70.10
2022-10-28T15:20:24.087Z,70.00
2022-10-28T15:22:53.548Z,69.98
2022-10-28T15:25:39.719Z,70.18
2022-10-28T15:28:12.345Z,70.10
2022-10-28T15:30:58.896Z,70.09
2022-10-28T15:33:32.917Z,69.99
2022-10-28T15:36:16.681Z,70.05
2022-10-28T15:38:50.419Z,70.08
2022-10-28T15:41:21.689Z,70.04
2022-10-28T15:44:26.983Z,70.09
2022-10-28T15:46:56.487Z,70.11
2022-10-28T15:49:36.371Z,70.11
2022-10-28T15:52:17.389Z,70.07
2022-10-28T15:54:55.591Z,70.01
2022-10-28T15:57:44.000Z,70.17
2022-10-28T16:00:20.098Z,70.29
2022-10-28T16:03:02.112Z,70.12
2022-10-28T16:05:49.500Z,70.25
2022-10-28T16:08:22.945Z,70.26
2022-10-28T16:10:54.329Z,70.22
2022-10-28T16:13:25.072Z,70.23
2022-10-28T16:15:59.117Z,70.27
2022-10-28T16:18:28.704Z,70.26
2022-10-28T16:20:58.536Z,70.31
2022-10-28T16:23:46.469Z,70.38
2022-10-28T16:26:15.581Z,70.29
2022-10-28T16:28:45.278Z,70.36
2022-10-28T16:31:18.647Z,70.34
2022-10-28T16:33:46.972Z,70.44
2022-10-28T16:36:15.888Z,70.42
2022-10-28T16:38:44.426Z,70.37
2022-10-28T16:41:16.617Z,70.46
2022-10-28T16:43:46.227Z,70.40
2022-10-28T16:46:15.427Z,70.46
2022-10-28T16:49:02.224Z,70.41
2022-10-28T16:51:31.143Z,70.49
2022-10-28T16:54:01.542Z,70.50
2022-10-28T16:56:30.142Z,70.49
2022-10-28T16:59:16.925Z,70.58
2022-10-28T17:02:04.221Z,70.56
2022-10-28T17:04:33.477Z,70.54
2022-10-28T17:07:20.059Z,70.61
2022-10-28T17:09:48.725Z,70.65
2022-10-28T17:12:18.832Z,70.61
2022-10-28T17:14:48.032Z,70.54
2022-10-28T17:17:17.187Z,70.54
2022-10-28T17:19:46.790Z,70.77
2022-10-28T17:22:15.218Z,70.70
2022-10-28T17:24:43.922Z,70.66
2022-10-28T17:27:30.269Z,70.68
2022-10-28T17:29:59.602Z,70.63
2022-10-28T17:32:49.895Z,70.51
2022-10-28T17:35:19.478Z,70.52
2022-10-28T17:37:48.630Z,70.53
2022-10-28T17:40:17.675Z,70.59
2022-10-28T17:42:46.641Z,70.72
2022-10-28T17:45:32.473Z,70.63
2022-10-28T17:48:18.900Z,70.70
2022-10-28T17:50:54.381Z,70.67
2022-10-28T17:53:23.370Z,70.71
2022-10-28T17:56:10.502Z,70.75
2022-10-28T17:58:38.884Z,70.67
2022-10-28T18:01:08.777Z,70.78
2022-10-28T18:03:39.266Z,70.74
2022-10-28T18:06:10.270Z,70.79
2022-10-28T18:08:42.285Z,70.86
2022-10-28T18:11:31.762Z,70.78
2022-10-28T18:14:03.837Z,70.79
2022-10-28T18:16:32.300Z,70.85
2022-10-28T18:19:04.285Z,70.86
2022-10-28T18:21:50.568Z,70.84
2022-10-28T18:24:21.988Z,70.78
2022-10-28T18:26:55.271Z,70.74
2022-10-28T18:29:23.726Z,70.68
2022-10-28T18:31:53.054Z,70.76
2022-10-28T18:34:24.194Z,70.76
2022-10-28T18:37:12.092Z,70.75
2022-10-28T18:39:40.539Z,70.82
2022-10-28T18:42:12.214Z,70.74
2022-10-28T18:45:01.401Z,70.84
2022-10-28T18:47:30.493Z,70.78
2022-10-28T18:49:59.314Z,70.73
2022-10-28T18:52:27.744Z,70.72
2022-10-28T18:54:56.676Z,70.84
2022-10-28T18:57:25.686Z,70.83
2022-10-28T19:02:47.568Z,70.74
2022-10-28T19:05:16.734Z,70.74
2022-10-28T19:07:45.691Z,70.79
2022-10-28T19:10:31.356Z,70.81
2022-10-28T19:13:02.159Z,70.82
2022-10-28T19:15:30.827Z,70.88
2022-10-28T19:17:59.332Z,71.00
2022-10-28T19:20:28.488Z,70.99
2022-10-28T19:22:57.830Z,71.02
2022-10-28T19:25:28.072Z,70.93
2022-10-28T19:28:14.695Z,70.95
2022-10-28T19:30:43.736Z,70.98
2022-10-28T19:33:30.434Z,71.02
2022-10-28T19:36:08.654Z,70.91
2022-10-28T19:38:38.208Z,71.04
2022-10-28T19:41:11.768Z,71.04
2022-10-28T19:43:41.142Z,71.02
2022-10-28T19:46:11.451Z,71.10
2022-10-28T19:48:41.005Z,71.09
2022-10-28T19:51:12.542Z,71.01
2022-10-28T19:54:02.058Z,70.91
2022-10-28T19:56:49.365Z,71.02
2022-10-28T19:59:17.713Z,71.04
2022-10-28T20:01:46.218Z,71.03
2022-10-28T20:04:14.850Z,71.01
2022-10-28T20:06:43.463Z,71.09
2022-10-28T20:09:12.035Z,71.00
2022-10-28T20:11:40.666Z,71.09
2022-10-28T20:14:12.162Z,71.03
2022-10-28T20:16:43.307Z,71.11
2022-10-28T20:19:12.569Z,71.05
2022-10-28T20:21:41.255Z,71.16
2022-10-28T20:24:09.628Z,71.10
2022-10-28T20:26:39.383Z,71.13
2022-10-28T20:29:09.061Z,71.14
2022-10-28T20:31:39.402Z,71.14
2022-10-28T20:34:08.263Z,71.15
2022-10-28T20:36:41.491Z,71.14
2022-10-28T20:39:28.055Z,71.24
2022-10-28T20:41:57.017Z,71.16
2022-10-28T20:44:25.509Z,71.22
2022-10-28T20:46:53.868Z,71.11
2022-10-28T20:49:23.334Z,71.29
2022-10-28T20:51:52.013Z,71.21
2022-10-28T20:54:20.592Z,71.20
2022-10-28T20:56:49.189Z,71.32
2022-10-28T20:59:17.570Z,71.23
2022-10-28T21:01:46.190Z,71.29
2022-10-28T21:04:14.825Z,71.38
2022-10-28T21:06:43.212Z,71.31
2022-10-28T21:09:12.381Z,71.18
2022-10-28T21:11:41.112Z,71.25
2022-10-28T21:14:26.822Z,71.21
2022-10-28T21:16:55.706Z,71.28
2022-10-28T21:19:24.920Z,71.23
2022-10-28T21:21:54.884Z,71.26
2022-10-28T21:24:24.060Z,71.36
2022-10-28T21:26:53.135Z,71.24
2022-10-28T21:29:21.741Z,71.30
2022-10-28T21:31:50.623Z,71.36
2022-10-28T21:34:37.279Z,71.25
2022-10-28T21:37:06.420Z,71.32
2022-10-28T21:39:38.566Z,71.27
2022-10-28T21:42:07.533Z,71.32
2022-10-28T21:44:36.686Z,71.29
2022-10-28T21:47:05.950Z,71.28
2022-10-28T21:49:34.983Z,71.25
2022-10-28T21:52:03.845Z,71.33
2022-10-28T21:54:46.499Z,71.26
2022-10-28T21:57:16.732Z,71.29
2022-10-28T21:59:50.380Z,71.27
2022-10-28T22:02:20.212Z,71.32
2022-10-28T22:04:49.383Z,71.25
2022-10-28T22:07:18.308Z,71.16
2022-10-28T22:09:47.607Z,71.35
2022-10-28T22:12:34.532Z,71.25
2022-10-28T22:15:03.847Z,71.19
2022-10-28T22:17:34.602Z,71.18
2022-10-28T22:20:05.314Z,71.17
2022-10-28T22:22:34.514Z,71.24
2022-10-28T22:25:20.972Z,71.09
2022-10-28T22:27:49.954Z,71.15
2022-10-28T22:30:18.349Z,71.06
2022-10-28T22:33:05.071Z,71.11
2022-10-28T22:35:34.071Z,71.11
2022-10-28T22:38:02.728Z,71.22
2022-10-28T22:40:49.878Z,71.22
2022-10-28T22:43:36.338Z,71.23
2022-10-28T22:46:05.682Z,71.22
2022-10-28T22:48:34.537Z,71.12
2022-10-28T22:51:05.069Z,71.22
2022-10-28T22:53:33.930Z,71.17
2022-10-28T22:56:02.887Z,71.17
2022-10-28T22:58:53.126Z,71.19
2022-10-28T23:01:22.351Z,71.06
2022-10-28T23:03:52.195Z,71.12
2022-10-28T23:06:22.363Z,71.11
2022-10-28T23:08:51.115Z,71.09
2022-10-28T23:11:20.426Z,70.97
2022-10-28T23:13:53.302Z,71.10
2022-10-28T23:16:39.960Z,71.07
2022-10-28T23:19:08.779Z,71.05
2022-10-28T23:21:54.838Z,71.07
2022-10-28T23:24:23.331Z,71.08
2022-10-28T23:26:52.724Z,71.09
2022-10-28T23:29:21.792Z,71.06
2022-10-28T23:31:50.743Z,71.03
2022-10-28T23:34:19.876Z,71.08
2022-10-28T23:36:54.593Z,70.98
2022-10-28T23:39:24.064Z,71.09
2022-10-28T23:41:53.236Z,71.19
2022-10-28T23:44:22.032Z,71.12
2022-10-28T23:46:51.012Z,70.98
2022-10-28T23:49:38.239Z,70.95
2022-10-28T23:52:07.694Z,71.01
2022-10-28T23:54:37.532Z,71.06
2022-10-28T23:57:06.853Z,71.04
2022-10-28T23:59:54.750Z,70.99
